createdAt,value
2022-08-30T00:02:03.185Z,16.80
2022-08-30T00:07:06.721Z,16.19
2022-08-30T00:12:10.827Z,16.39
2022-08-30T00:17:16.244Z,16.62
2022-08-30T00:22:19.957Z,16.56
2022-08-30T00:27:23.773Z,17.12
2022-08-30T00:32:28.908Z,17.04
2022-08-30T00:37:32.808Z,16.97
2022-08-30T00:42:36.844Z,16.60
2022-08-30T00:47:42.081Z,16.23
2022-08-30T00:52:49.185Z,16.09
2022-08-30T00:57:57.638Z,16.43
2022-08-30T01:03:03.024Z,16.59
2022-08-30T01:08:07.120Z,16.75
2022-08-30T01:13:13.822Z,16.74
2022-08-30T01:18:20.427Z,16.38
2022-08-30T01:23:29.064Z,16.33
2022-08-30T01:28:35.264Z,16.46
2022-08-30T01:33:40.289Z,16.39
2022-08-30T01:38:49.563Z,16.28
2022-08-30T01:43:55.399Z,16.02
2022-08-30T01:48:59.717Z,15.56
2022-08-30T01:54:05.615Z,15.83
2022-08-30T01:59:09.165Z,15.56
2022-08-30T02:04:14.595Z,15.89
2022-08-30T02:09:20.070Z,15.75
2022-08-30T02:14:23.934Z,15.87
2022-08-30T02:19:27.625Z,16.08
2022-08-30T02:24:33.034Z,16.22
2022-08-30T02:29:37.014Z,16.21
2022-08-30T02:34:40.780Z,15.83
2022-08-30T02:39:45.801Z,15.83
2022-08-30T02:44:49.435Z,15.73
2022-08-30T02:49:53.439Z,15.18
2022-08-30T02:54:58.452Z,14.46
2022-08-30T03:00:02.309Z,14.59
2022-08-30T03:05:08.531Z,14.50
2022-08-30T03:10:18.190Z,14.42
2022-08-30T03:15:26.190Z,15.18
2022-08-30T03:20:34.919Z,15.28
2022-08-30T03:25:43.831Z,15.04
2022-08-30T03:30:50.954Z,15.27
2022-08-30T03:35:57.769Z,15.76
2022-08-30T03:41:07.522Z,15.28
2022-08-30T03:46:16.433Z,15.36
2022-08-30T03:51:23.881Z,15.16
2022-08-30T03:56:32.614Z,15.88
2022-08-30T04:01:39.600Z,15.43
2022-08-30T04:06:46.907Z,15.19
2022-08-30T04:11:55.814Z,15.06
2022-08-30T04:17:03.186Z,15.47
2022-08-30T04:22:10.180Z,15.69
2022-08-30T04:27:20.621Z,15.61
2022-08-30T04:32:27.336Z,15.99
2022-08-30T04:37:34.657Z,15.91
2022-08-30T04:42:44.358Z,16.42
2022-08-30T04:47:49.635Z,16.59
2022-08-30T04:52:53.305Z,16.55
2022-08-30T04:57:58.404Z,16.11
2022-08-30T05:03:02.315Z,17.24
2022-08-30T05:08:06.229Z,18.79
2022-08-30T05:13:12.533Z,18.45
2022-08-30T05:18:19.698Z,17.99
2022-08-30T05:23:27.035Z,18.67
2022-08-30T05:28:35.687Z,20.02
2022-08-30T05:33:42.609Z,19.60
2022-08-30T05:38:49.995Z,18.80
2022-08-30T05:43:59.894Z,19.81
2022-08-30T05:49:10.406Z,18.84
2022-08-30T05:54:18.356Z,20.14
2022-08-30T05:59:30.036Z,21.30
2022-08-30T06:04:40.805Z,21.64
2022-08-30T06:09:51.556Z,22.52
2022-08-30T06:15:01.068Z,22.37
2022-08-30T06:20:32.494Z,21.35
2022-08-30T06:25:43.973Z,22.28
2022-08-30T06:30:53.157Z,23.02
2022-08-30T06:36:06.180Z,22.89
2022-08-30T06:41:17.253Z,22.52
2022-08-30T06:46:45.827Z,23.14
2022-08-30T06:51:52.791Z,21.20
2022-08-30T06:57:00.825Z,21.63
2022-08-30T07:02:11.484Z,21.42
2022-08-30T07:07:19.515Z,21.55
2022-08-30T07:12:27.014Z,21.55
2022-08-30T07:17:53.449Z,21.20
2022-08-30T07:23:03.035Z,21.98
2022-08-30T07:28:12.410Z,22.22
2022-08-30T07:33:20.877Z,21.24
2022-08-30T07:38:28.686Z,20.74
2022-08-30T07:43:38.816Z,20.87
2022-08-30T07:48:47.978Z,21.28
2022-08-30T07:53:56.376Z,21.23
2022-08-30T07:59:02.584Z,22.00
2022-08-30T08:04:10.947Z,22.17
2022-08-30T08:09:20.399Z,21.47
2022-08-30T08:14:27.981Z,21.57
2022-08-30T08:20:07.185Z,21.59
2022-08-30T08:25:34.557Z,21.28
2022-08-30T08:31:01.126Z,23.33
2022-08-30T08:36:11.238Z,22.28
2022-08-30T08:41:45.284Z,20.96
2022-08-30T08:47:07.681Z,20.77
2022-08-30T08:52:42.314Z,21.93
2022-08-30T08:57:55.669Z,22.21
2022-08-30T09:03:17.455Z,23.25
2022-08-30T09:08:48.405Z,23.02
2022-08-30T09:13:57.370Z,22.14
2022-08-30T09:19:05.109Z,22.79
2022-08-30T09:24:26.043Z,23.18
2022-08-30T09:29:34.892Z,22.22
2022-08-30T09:34:49.111Z,21.67
2022-08-30T09:40:06.436Z,22.32
2022-08-30T09:45:30.386Z,23.10
2022-08-30T09:50:39.564Z,22.98
2022-08-30T09:56:04.089Z,22.15
2022-08-30T10:01:17.377Z,22.24
2022-08-30T10:06:34.496Z,21.97
2022-08-30T10:11:52.412Z,23.10
2022-08-30T10:17:08.642Z,23.54
2022-08-30T10:22:21.683Z,22.20
2022-08-30T10:27:37.530Z,23.05
2022-08-30T10:32:54.220Z,24.34
2022-08-30T10:38:08.164Z,23.64
2022-08-30T10:43:23.972Z,22.25
2022-08-30T10:48:34.248Z,23.35
2022-08-30T10:53:46.828Z,25.42
2022-08-30T10:58:55.083Z,25.32
2022-08-30T11:04:40.091Z,25.04
2022-08-30T11:10:10.755Z,24.30
2022-08-30T11:15:21.999Z,24.07
2022-08-30T11:20:39.789Z,23.64
2022-08-30T11:25:57.474Z,24.13
2022-08-30T11:31:09.728Z,25.98
2022-08-30T11:36:50.760Z,24.25
2022-08-30T11:47:46.094Z,23.32
2022-08-30T11:53:01.721Z,27.69
2022-08-30T11:58:28.047Z,26.95
2022-08-30T12:03:40.121Z,28.15
2022-08-30T12:08:59.983Z,27.11
2022-08-30T12:14:31.104Z,24.68
2022-08-30T12:19:37.933Z,26.21
2022-08-30T12:24:52.398Z,27.86
2022-08-30T12:30:02.364Z,29.24
2022-08-30T12:35:22.453Z,29.80
2022-08-30T12:40:31.911Z,29.32
2022-08-30T12:45:45.939Z,28.55
2022-08-30T12:51:04.496Z,30.71
2022-08-30T12:56:13.334Z,28.87
2022-08-30T13:01:28.904Z,24.80
2022-08-30T13:06:44.414Z,25.32
2022-08-30T13:11:52.766Z,27.67
2022-08-30T13:17:09.256Z,28.68
2022-08-30T13:22:28.807Z,28.86
2022-08-30T13:27:33.203Z,28.70
2022-08-30T13:32:41.452Z,27.98
2022-08-30T13:37:50.526Z,27.24
2022-08-30T13:42:55.804Z,23.98
2022-08-30T13:48:02.539Z,23.85
2022-08-30T13:53:10.536Z,27.45
2022-08-30T13:58:18.391Z,29.42
2022-08-30T14:03:26.249Z,29.89
2022-08-30T14:08:46.234Z,29.51
2022-08-30T14:19:27.035Z,31.27
2022-08-30T14:24:35.092Z,29.13
2022-08-30T14:29:42.082Z,26.08
2022-08-30T14:34:50.506Z,26.89
2022-08-30T14:39:58.897Z,27.10
2022-08-30T14:45:06.187Z,24.87
2022-08-30T14:50:13.373Z,24.70
2022-08-30T14:55:21.886Z,24.77
2022-08-30T15:00:29.171Z,24.23
2022-08-30T15:05:36.588Z,26.22
2022-08-30T15:10:45.759Z,29.03
2022-08-30T15:15:52.049Z,29.54
2022-08-30T15:21:00.404Z,28.31
2022-08-30T15:26:09.775Z,27.90
2022-08-30T15:31:17.336Z,26.18
2022-08-30T15:36:24.068Z,24.98
2022-08-30T15:41:32.814Z,26.12
2022-08-30T15:46:43.415Z,26.94
2022-08-30T15:51:53.948Z,26.99
2022-08-30T15:57:03.186Z,27.77
2022-08-30T16:02:12.663Z,27.48
2022-08-30T16:07:21.273Z,26.92
2022-08-30T16:12:29.752Z,27.01
2022-08-30T16:17:36.257Z,27.23
2022-08-30T16:22:45.851Z,25.01
2022-08-30T16:27:55.277Z,23.92
2022-08-30T16:33:02.412Z,24.16
2022-08-30T16:38:09.519Z,23.07
2022-08-30T16:43:19.686Z,22.44
2022-08-30T16:48:26.718Z,22.11
2022-08-30T16:53:33.448Z,21.68
2022-08-30T16:58:44.750Z,21.51
2022-08-30T17:03:53.817Z,21.63
2022-08-30T17:09:00.193Z,21.82
2022-08-30T17:14:08.320Z,21.24
2022-08-30T17:19:15.475Z,21.70
2022-08-30T17:24:24.570Z,21.85
2022-08-30T17:29:33.728Z,22.02
2022-08-30T17:34:41.167Z,21.73
2022-08-30T17:39:48.786Z,21.73
2022-08-30T17:44:59.482Z,21.76
2022-08-30T17:50:11.221Z,21.61
2022-08-30T17:55:18.306Z,21.25
2022-08-30T18:00:26.799Z,21.14
2022-08-30T18:05:34.169Z,21.39
2022-08-30T18:10:45.254Z,21.37
2022-08-30T18:15:55.113Z,21.52
2022-08-30T18:21:02.641Z,21.27
2022-08-30T18:26:15.910Z,20.94
2022-08-30T18:31:26.173Z,20.57
2022-08-30T18:36:39.462Z,20.50
2022-08-30T18:41:55.709Z,20.65
2022-08-30T18:47:23.044Z,20.41
2022-08-30T18:52:30.209Z,20.21
2022-08-30T18:57:37.156Z,20.06
2022-08-30T19:02:49.926Z,20.02
2022-08-30T19:07:57.384Z,19.82
2022-08-30T19:13:04.421Z,19.83
2022-08-30T19:18:17.362Z,19.72
2022-08-30T19:23:27.794Z,20.04
2022-08-30T19:28:40.336Z,19.26
2022-08-30T19:33:48.066Z,19.32
2022-08-30T19:38:55.869Z,19.32
2022-08-30T19:44:04.589Z,18.84
2022-08-30T19:49:14.010Z,18.48
2022-08-30T19:54:25.906Z,18.46
2022-08-30T19:59:34.333Z,18.34
2022-08-30T20:04:43.251Z,18.02
2022-08-30T20:10:07.144Z,17.81
2022-08-30T20:15:28.919Z,17.86
2022-08-30T20:20:38.405Z,17.93
2022-08-30T20:25:51.873Z,17.59
2022-08-30T20:31:05.080Z,17.54
2022-08-30T20:36:12.568Z,17.49
2022-08-30T20:41:19.948Z,17.26
2022-08-30T20:46:23.880Z,17.35
2022-08-30T20:51:30.661Z,17.60
2022-08-30T20:56:41.467Z,17.56
2022-08-30T21:01:45.467Z,17.96
2022-08-30T21:07:00.288Z,17.77
2022-08-30T21:12:06.340Z,18.28
2022-08-30T21:17:10.173Z,18.01
2022-08-30T21:22:15.592Z,18.26
2022-08-30T21:27:19.511Z,18.14
2022-08-30T21:32:23.367Z,18.31
2022-08-30T21:37:31.083Z,17.47
2022-08-30T21:42:39.911Z,17.97
2022-08-30T21:47:44.010Z,16.80
2022-08-30T21:52:52.127Z,15.72
2022-08-30T21:58:22.288Z,15.47
2022-08-30T22:03:46.890Z,14.63
2022-08-30T22:09:14.004Z,14.55
2022-08-30T22:14:18.358Z,14.40
2022-08-30T22:19:23.590Z,15.11
2022-08-30T22:24:32.754Z,15.43
2022-08-30T22:29:37.397Z,14.88
2022-08-30T22:34:42.569Z,15.05
2022-08-30T22:39:48.122Z,15.53
2022-08-30T22:44:53.006Z,15.25
2022-08-30T22:49:57.118Z,15.42
2022-08-30T22:55:04.351Z,15.97
2022-08-30T23:00:12.360Z,16.67
2022-08-30T23:05:17.900Z,17.53
2022-08-30T23:10:28.135Z,17.16
2022-08-30T23:15:32.572Z,17.58
2022-08-30T23:20:36.485Z,17.84
2022-08-30T23:25:59.177Z,17.60
2022-08-30T23:31:27.450Z,16.99
2022-08-30T23:36:49.087Z,15.94
2022-08-30T23:42:12.057Z,16.86
2022-08-30T23:47:33.236Z,16.40
2022-08-30T23:52:55.068Z,16.34
2022-08-30T23:58:18.183Z,16.54
